sensor_id;sensor_type;location;lat;lon;timestamp;pressure;altitude;pressure_sealevel;temperature;humidity
10014;BME280;45684;48.358;10.746;2022-09-29T00:01:10;94779.16;;;7.35;100.00
10014;BME280;45684;48.358;10.746;2022-09-29T00:03:40;94773.75;;;7.35;100.00
10014;BME280;45684;48.358;10.746;2022-09-29T00:06:12;94772.34;;;7.37;100.00
10014;BME280;45684;48.358;10.746;2022-09-29T00:08:40;94776.25;;;7.40;100.00
10014;BME280;45684;48.358;10.746;2022-09-29T00:11:10;94772.91;;;7.43;100.00
10014;BME280;45684;48.358;10.746;2022-09-29T00:13:38;94772.56;;;7.45;100.00
10014;BME280;45684;48.358;10.746;2022-09-29T00:16:06;94776.50;;;7.47;100.00
10014;BME280;45684;48.358;10.746;2022-09-29T00:18:34;94772.72;;;7.48;100.00
10014;BME280;45684;48.358;10.746;2022-09-29T00:21:06;94767.78;;;7.50;100.00
10014;BME280;45684;48.358;10.746;2022-09-29T00:23:35;94762.88;;;7.52;100.00
10014;BME280;45684;48.358;10.746;2022-09-29T00:26:06;94762.53;;;7.54;100.00
10014;BME280;45684;48.358;10.746;2022-09-29T00:28:36;94766.00;;;7.54;100.00
10014;BME280;45684;48.358;10.746;2022-09-29T00:31:06;94764.88;;;7.55;100.00
10014;BME280;45684;48.358;10.746;2022-09-29T00:33:35;94769.94;;;7.57;100.00
10014;BME280;45684;48.358;10.746;2022-09-29T00:36:06;94770.72;;;7.57;100.00
10014;BME280;45684;48.358;10.746;2022-09-29T00:38:35;94772.16;;;7.55;100.00
10014;BME280;45684;48.358;10.746;2022-09-29T00:41:03;94779.13;;;7.56;100.00
10014;BME280;45684;48.358;10.746;2022-09-29T00:43:55;94771.63;;;7.61;100.00
10014;BME280;45684;48.358;10.746;2022-09-29T00:46:32;94776.34;;;7.64;100.00
10014;BME280;45684;48.358;10.746;2022-09-29T00:49:03;94777.66;;;7.58;100.00
10014;BME280;45684;48.358;10.746;2022-09-29T00:51:36;94772.50;;;7.53;100.00
10014;BME280;45684;48.358;10.746;2022-09-29T00:54:07;94776.31;;;7.52;100.00
10014;BME280;45684;48.358;10.746;2022-09-29T00:56:38;94769.81;;;7.53;100.00
10014;BME280;45684;48.358;10.746;2022-09-29T00:59:11;94767.56;;;7.55;100.00
10014;BME280;45684;48.358;10.746;2022-09-29T01:01:40;94763.31;;;7.54;100.00
10014;BME280;45684;48.358;10.746;2022-09-29T01:04:10;94756.03;;;7.55;100.00
10014;BME280;45684;48.358;10.746;2022-09-29T01:06:44;94759.84;;;7.54;100.00
10014;BME280;45684;48.358;10.746;2022-09-29T01:09:16;94760.63;;;7.54;100.00
10014;BME280;45684;48.358;10.746;2022-09-29T01:11:45;94756.34;;;7.53;100.00
10014;BME280;45684;48.358;10.746;2022-09-29T01:14:13;94759.06;;;7.53;100.00
10014;BME280;45684;48.358;10.746;2022-09-29T01:16:42;94750.53;;;7.51;100.00
10014;BME280;45684;48.358;10.746;2022-09-29T01:19:13;94752.88;;;7.53;100.00
10014;BME280;45684;48.358;10.746;2022-09-29T01:21:53;94742.91;;;7.53;100.00
10014;BME280;45684;48.358;10.746;2022-09-29T01:24:38;94741.34;;;7.52;100.00
10014;BME280;45684;48.358;10.746;2022-09-29T01:27:20;94742.91;;;7.53;100.00
10014;BME280;45684;48.358;10.746;2022-09-29T01:30:07;94730.59;;;7.52;100.00
10014;BME280;45684;48.358;10.746;2022-09-29T01:33:03;94737.19;;;7.55;100.00
10014;BME280;45684;48.358;10.746;2022-09-29T01:35:44;94745.25;;;7.55;100.00
10014;BME280;45684;48.358;10.746;2022-09-29T01:38:26;94742.13;;;7.53;100.00
10014;BME280;45684;48.358;10.746;2022-09-29T01:41:01;94745.16;;;7.51;100.00
10014;BME280;45684;48.358;10.746;2022-09-29T01:43:33;94743.56;;;7.50;100.00
10014;BME280;45684;48.358;10.746;2022-09-29T01:46:06;94742.78;;;7.50;100.00
10014;BME280;45684;48.358;10.746;2022-09-29T01:48:39;94742.47;;;7.51;100.00
10014;BME280;45684;48.358;10.746;2022-09-29T01:51:14;94739.78;;;7.51;100.00
10014;BME280;45684;48.358;10.746;2022-09-29T01:53:47;94740.22;;;7.53;100.00
10014;BME280;45684;48.358;10.746;2022-09-29T01:56:20;94742.13;;;7.53;100.00
10014;BME280;45684;48.358;10.746;2022-09-29T01:58:54;94733.72;;;7.54;100.00
10014;BME280;45684;48.358;10.746;2022-09-29T02:01:26;94740.22;;;7.53;100.00
10014;BME280;45684;48.358;10.746;2022-09-29T02:04:00;94744.81;;;7.53;100.00
10014;BME280;45684;48.358;10.746;2022-09-29T02:06:31;94747.50;;;7.53;100.00
10014;BME280;45684;48.358;10.746;2022-09-29T02:09:08;94741.78;;;7.54;100.00
10014;BME280;45684;48.358;10.746;2022-09-29T02:11:38;94745.59;;;7.53;100.00
10014;BME280;45684;48.358;10.746;2022-09-29T02:14:11;94737.53;;;7.53;100.00
10014;BME280;45684;48.358;10.746;2022-09-29T02:16:45;94734.06;;;7.53;100.00
10014;BME280;45684;48.358;10.746;2022-09-29T02:19:17;94732.16;;;7.53;100.00
10014;BME280;45684;48.358;10.746;2022-09-29T02:21:46;94734.50;;;7.55;100.00
10014;BME280;45684;48.358;10.746;2022-09-29T02:24:14;94736.09;;;7.56;100.00
10014;BME280;45684;48.358;10.746;2022-09-29T02:26:42;94726.13;;;7.56;100.00
10014;BME280;45684;48.358;10.746;2022-09-29T02:29:11;94729.59;;;7.57;100.00
10014;BME280;45684;48.358;10.746;2022-09-29T02:31:39;94726.13;;;7.56;100.00
10014;BME280;45684;48.358;10.746;2022-09-29T02:34:10;94734.50;;;7.55;100.00
10014;BME280;45684;48.358;10.746;2022-09-29T02:36:48;94735.28;;;7.55;100.00
10014;BME280;45684;48.358;10.746;2022-09-29T02:39:29;94727.22;;;7.55;100.00
10014;BME280;45684;48.358;10.746;2022-09-29T02:42:05;94729.13;;;7.55;100.00
10014;BME280;45684;48.358;10.746;2022-09-29T02:44:53;94731.50;;;7.56;100.00
10014;BME280;45684;48.358;10.746;2022-09-29T02:47:36;94731.50;;;7.56;100.00
10014;BME280;45684;48.358;10.746;2022-09-29T02:50:28;94736.88;;;7.56;100.00
10014;BME280;45684;48.358;10.746;2022-09-29T02:53:11;94728.81;;;7.56;100.00
10014;BME280;45684;48.358;10.746;2022-09-29T02:55:48;94722.97;;;7.54;100.00
10014;BME280;45684;48.358;10.746;2022-09-29T02:58:26;94725.56;;;7.51;100.00
10014;BME280;45684;48.358;10.746;2022-09-29T03:00:57;94725.41;;;7.47;100.00
10014;BME280;45684;48.358;10.746;2022-09-29T03:03:25;94726.84;;;7.45;100.00
10014;BME280;45684;48.358;10.746;2022-09-29T03:05:53;94721.34;;;7.41;100.00
10014;BME280;45684;48.358;10.746;2022-09-29T03:08:22;94718.66;;;7.41;100.00
10014;BME280;45684;48.358;10.746;2022-09-29T03:10:50;94724.72;;;7.38;100.00
10014;BME280;45684;48.358;10.746;2022-09-29T03:13:18;94718.44;;;7.34;100.00
10014;BME280;45684;48.358;10.746;2022-09-29T03:15:46;94711.78;;;7.31;100.00
10014;BME280;45684;48.358;10.746;2022-09-29T03:18:14;94715.94;;;7.29;100.00
10014;BME280;45684;48.358;10.746;2022-09-29T03:20:42;94720.41;;;7.25;100.00
10014;BME280;45684;48.358;10.746;2022-09-29T03:23:10;94711.88;;;7.23;100.00
10014;BME280;45684;48.358;10.746;2022-09-29T03:25:39;94710.66;;;7.20;100.00
10014;BME280;45684;48.358;10.746;2022-09-29T03:28:07;94709.59;;;7.12;100.00
10014;BME280;45684;48.358;10.746;2022-09-29T03:30:35;94714.41;;;7.07;100.00
10014;BME280;45684;48.358;10.746;2022-09-29T03:33:02;94709.81;;;7.07;100.00
10014;BME280;45684;48.358;10.746;2022-09-29T03:35:30;94715.84;;;7.04;100.00
10014;BME280;45684;48.358;10.746;2022-09-29T03:37:58;94703.50;;;7.03;100.00
10014;BME280;45684;48.358;10.746;2022-09-29T03:40:27;94705.75;;;7.01;100.00
10014;BME280;45684;48.358;10.746;2022-09-29T03:42:56;94709.66;;;7.04;100.00
10014;BME280;45684;48.358;10.746;2022-09-29T03:45:24;94710.47;;;7.04;100.00
10014;BME280;45684;48.358;10.746;2022-09-29T03:47:51;94711.25;;;7.05;100.00
10014;BME280;45684;48.358;10.746;2022-09-29T03:50:19;94706.97;;;7.04;100.00
10014;BME280;45684;48.358;10.746;2022-09-29T03:52:47;94718.53;;;7.04;100.00
10014;BME280;45684;48.358;10.746;2022-09-29T03:55:15;94699.72;;;7.04;100.00
10014;BME280;45684;48.358;10.746;2022-09-29T03:57:43;94700.50;;;7.05;100.00
10014;BME280;45684;48.358;10.746;2022-09-29T04:00:14;94696.56;;;7.02;100.00
10014;BME280;45684;48.358;10.746;2022-09-29T04:02:42;94700.72;;;7.00;100.00
10014;BME280;45684;48.358;10.746;2022-09-29T04:05:09;94709.22;;;7.02;100.00
10014;BME280;45684;48.358;10.746;2022-09-29T04:07:37;94715.03;;;7.04;100.00
10014;BME280;45684;48.358;10.746;2022-09-29T04:10:05;94718.84;;;7.03;100.00
10014;BME280;45684;48.358;10.746;2022-09-29T04:12:33;94714.72;;;7.05;100.00
10014;BME280;45684;48.358;10.746;2022-09-29T04:15:01;94719.31;;;7.05;100.00
10014;BME280;45684;48.358;10.746;2022-09-29T04:17:30;94711.25;;;7.05;100.00
10014;BME280;45684;48.358;10.746;2022-09-29T04:19:58;94717.88;;;7.07;100.00
10014;BME280;45684;48.358;10.746;2022-09-29T04:22:26;94705.22;;;7.08;100.00
10014;BME280;45684;48.358;10.746;2022-09-29T04:24:53;94710.59;;;7.08;100.00
10014;BME280;45684;48.358;10.746;2022-09-29T04:27:22;94717.56;;;7.09;100.00
10014;BME280;45684;48.358;10.746;2022-09-29T04:29:50;94720.25;;;7.09;100.00
10014;BME280;45684;48.358;10.746;2022-09-29T04:32:18;94727.50;;;7.08;100.00
10014;BME280;45684;48.358;10.746;2022-09-29T04:34:47;94736.38;;;7.09;100.00
10014;BME280;45684;48.358;10.746;2022-09-29T04:37:15;94731.00;;;7.09;100.00
10014;BME280;45684;48.358;10.746;2022-09-29T04:39:43;94737.47;;;7.08;100.00
10014;BME280;45684;48.358;10.746;2022-09-29T04:42:11;94729.41;;;7.08;100.00
10014;BME280;45684;48.358;10.746;2022-09-29T04:44:38;94724.81;;;7.08;100.00
10014;BME280;45684;48.358;10.746;2022-09-29T04:47:06;94726.06;;;7.11;100.00
10014;BME280;45684;48.358;10.746;2022-09-29T04:49:34;94722.72;;;7.14;100.00
10014;BME280;45684;48.358;10.746;2022-09-29T04:52:03;94719.25;;;7.13;100.00
10014;BME280;45684;48.358;10.746;2022-09-29T04:54:32;94721.59;;;7.15;100.00
10014;BME280;45684;48.358;10.746;2022-09-29T04:57:03;94720.03;;;7.14;100.00
10014;BME280;45684;48.358;10.746;2022-09-29T04:59:31;94712.75;;;7.14;100.00
10014;BME280;45684;48.358;10.746;2022-09-29T05:01:59;94712.41;;;7.16;100.00
10014;BME280;45684;48.358;10.746;2022-09-29T05:04:27;94708.94;;;7.15;100.00
10014;BME280;45684;48.358;10.746;2022-09-29T05:06:55;94715.25;;;7.20;100.00
10014;BME280;45684;48.358;10.746;2022-09-29T05:09:24;94711.44;;;7.21;100.00
10014;BME280;45684;48.358;10.746;2022-09-29T05:11:58;94713.34;;;7.20;100.00
10014;BME280;45684;48.358;10.746;2022-09-29T05:14:25;94721.41;;;7.20;100.00
10014;BME280;45684;48.358;10.746;2022-09-29T05:16:53;94725.66;;;7.21;100.00
10014;BME280;45684;48.358;10.746;2022-09-29T05:19:21;94725.66;;;7.21;100.00
10014;BME280;45684;48.358;10.746;2022-09-29T05:21:50;94722.97;;;7.21;100.00
10014;BME280;45684;48.358;10.746;2022-09-29T05:24:17;94729.91;;;7.22;100.00
10014;BME280;45684;48.358;10.746;2022-09-29T05:26:46;94722.31;;;7.24;100.00
10014;BME280;45684;48.358;10.746;2022-09-29T05:29:14;94725.91;;;7.28;100.00
10014;BME280;45684;48.358;10.746;2022-09-29T05:31:42;94724.47;;;7.31;100.00
10014;BME280;45684;48.358;10.746;2022-09-29T05:34:10;94733.00;;;7.33;100.00
10014;BME280;45684;48.358;10.746;2022-09-29T05:36:38;94726.63;;;7.37;100.00
10014;BME280;45684;48.358;10.746;2022-09-29T05:39:06;94727.84;;;7.40;100.00
10014;BME280;45684;48.358;10.746;2022-09-29T05:41:34;94727.97;;;7.44;100.00
10014;BME280;45684;48.358;10.746;2022-09-29T05:44:03;94720.47;;;7.49;100.00
10014;BME280;45684;48.358;10.746;2022-09-29T05:46:31;94719.06;;;7.52;100.00
10014;BME280;45684;48.358;10.746;2022-09-29T05:48:58;94725.34;;;7.56;100.00
10014;BME280;45684;48.358;10.746;2022-09-29T05:51:27;94724.00;;;7.62;100.00
10014;BME280;45684;48.358;10.746;2022-09-29T05:53:54;94716.72;;;7.62;100.00
10014;BME280;45684;48.358;10.746;2022-09-29T05:56:24;94706.88;;;7.66;100.00
10014;BME280;45684;48.358;10.746;2022-09-29T05:58:52;94706.19;;;7.70;100.00
10014;BME280;45684;48.358;10.746;2022-09-29T06:01:23;94714.06;;;7.75;100.00
10014;BME280;45684;48.358;10.746;2022-09-29T06:03:52;94708.13;;;7.81;100.00
10014;BME280;45684;48.358;10.746;2022-09-29T06:06:22;94710.94;;;7.85;100.00
10014;BME280;45684;48.358;10.746;2022-09-29T06:08:50;94713.41;;;7.90;100.00
10014;BME280;45684;48.358;10.746;2022-09-29T06:11:19;94710.50;;;7.95;100.00
10014;BME280;45684;48.358;10.746;2022-09-29T06:13:49;94718.81;;;8.02;100.00
10014;BME280;45684;48.358;10.746;2022-09-29T06:16:18;94705.13;;;8.07;100.00
10014;BME280;45684;48.358;10.746;2022-09-29T06:18:48;94719.50;;;8.11;100.00
10014;BME280;45684;48.358;10.746;2022-09-29T06:21:17;94712.28;;;8.15;100.00
10014;BME280;45684;48.358;10.746;2022-09-29T06:23:46;94720.59;;;8.23;100.00
10014;BME280;45684;48.358;10.746;2022-09-29T06:26:16;94712.28;;;8.28;100.00
10014;BME280;45684;48.358;10.746;2022-09-29T06:28:49;94710.94;;;8.34;100.00
10014;BME280;45684;48.358;10.746;2022-09-29T06:31:19;94718.81;;;8.39;100.00
10014;BME280;45684;48.358;10.746;2022-09-29T06:33:49;94713.56;;;8.42;100.00
10014;BME280;45684;48.358;10.746;2022-09-29T06:36:18;94721.41;;;8.48;100.00
10014;BME280;45684;48.358;10.746;2022-09-29T06:39:06;94716.91;;;8.52;100.00
10014;BME280;45684;48.358;10.746;2022-09-29T06:41:34;94709.72;;;8.56;100.00
10014;BME280;45684;48.358;10.746;2022-09-29T06:44:02;94714.44;;;8.59;100.00
10014;BME280;45684;48.358;10.746;2022-09-29T06:46:30;94716.91;;;8.64;100.00
10014;BME280;45684;48.358;10.746;2022-09-29T06:48:59;94714.31;;;8.67;100.00
10014;BME280;45684;48.358;10.746;2022-09-29T06:51:27;94722.50;;;8.71;100.00
10014;BME280;45684;48.358;10.746;2022-09-29T06:54:10;94721.47;;;8.76;100.00
10014;BME280;45684;48.358;10.746;2022-09-29T06:56:38;94727.75;;;8.80;100.00
10014;BME280;45684;48.358;10.746;2022-09-29T06:59:06;94728.66;;;8.84;100.00
10014;BME280;45684;48.358;10.746;2022-09-29T07:01:34;94732.59;;;8.86;100.00
10014;BME280;45684;48.358;10.746;2022-09-29T07:04:04;94726.06;;;8.87;100.00
10014;BME280;45684;48.358;10.746;2022-09-29T07:06:31;94733.13;;;8.92;100.00
10014;BME280;45684;48.358;10.746;2022-09-29T07:09:00;94732.91;;;8.97;100.00
10014;BME280;45684;48.358;10.746;2022-09-29T07:11:28;94734.56;;;9.02;100.00
10014;BME280;45684;48.358;10.746;2022-09-29T07:13:56;94730.84;;;9.06;100.00
10014;BME280;45684;48.358;10.746;2022-09-29T07:16:24;94736.00;;;9.11;100.00
10014;BME280;45684;48.358;10.746;2022-09-29T07:18:52;94747.69;;;9.15;100.00
10014;BME280;45684;48.358;10.746;2022-09-29T07:21:21;94740.47;;;9.19;100.00
10014;BME280;45684;48.358;10.746;2022-09-29T07:23:49;94738.22;;;9.22;100.00
10014;BME280;45684;48.358;10.746;2022-09-29T07:26:17;94735.63;;;9.25;100.00
10014;BME280;45684;48.358;10.746;2022-09-29T07:28:45;94736.16;;;9.31;100.00
10014;BME280;45684;48.358;10.746;2022-09-29T07:31:15;94738.59;;;9.36;100.00
10014;BME280;45684;48.358;10.746;2022-09-29T07:33:44;94742.19;;;9.40;100.00
10014;BME280;45684;48.358;10.746;2022-09-29T07:36:14;94743.50;;;9.46;100.00
10014;BME280;45684;48.358;10.746;2022-09-29T07:38:46;94751.34;;;9.51;100.00
10014;BME280;45684;48.358;10.746;2022-09-29T07:41:15;94742.56;;;9.54;100.00
10014;BME280;45684;48.358;10.746;2022-09-29T07:43:43;94740.75;;;9.58;100.00
10014;BME280;45684;48.358;10.746;2022-09-29T07:46:11;94739.72;;;9.63;100.00
10014;BME280;45684;48.358;10.746;2022-09-29T07:48:39;94753.06;;;9.71;100.00
10014;BME280;45684;48.358;10.746;2022-09-29T07:51:09;94754.38;;;9.78;100.00
10014;BME280;45684;48.358;10.746;2022-09-29T07:53:38;94752.22;;;9.83;100.00
10014;BME280;45684;48.358;10.746;2022-09-29T07:56:08;94766.16;;;9.85;100.00
10014;BME280;45684;48.358;10.746;2022-09-29T07:58:38;94764.66;;;9.88;100.00
10014;BME280;45684;48.358;10.746;2022-09-29T08:01:09;94762.41;;;9.90;100.00
10014;BME280;45684;48.358;10.746;2022-09-29T08:03:40;94751.63;;;9.90;100.00
10014;BME280;45684;48.358;10.746;2022-09-29T08:06:08;94763.31;;;9.94;100.00
10014;BME280;45684;48.358;10.746;2022-09-29T08:08:38;94762.16;;;9.95;100.00
10014;BME280;45684;48.358;10.746;2022-09-29T08:11:12;94763.81;;;10.00;100.00
10014;BME280;45684;48.358;10.746;2022-09-29T08:13:55;94767.06;;;10.05;100.00
10014;BME280;45684;48.358;10.746;2022-09-29T08:16:22;94771.06;;;10.11;100.00
10014;BME280;45684;48.358;10.746;2022-09-29T08:18:50;94766.97;;;10.17;100.00
10014;BME280;45684;48.358;10.746;2022-09-29T08:21:18;94761.31;;;10.22;100.00
10014;BME280;45684;48.358;10.746;2022-09-29T08:23:46;94772.69;;;10.28;100.00
10014;BME280;45684;48.358;10.746;2022-09-29T08:26:16;94775.81;;;10.30;100.00
10014;BME280;45684;48.358;10.746;2022-09-29T08:28:58;94780.16;;;10.35;100.00
10014;BME280;45684;48.358;10.746;2022-09-29T08:31:34;94781.13;;;10.42;100.00
10014;BME280;45684;48.358;10.746;2022-09-29T08:34:04;94782.50;;;10.52;100.00
10014;BME280;45684;48.358;10.746;2022-09-29T08:36:32;94785.41;;;10.59;100.00
10014;BME280;45684;48.358;10.746;2022-09-29T08:38:59;94781.72;;;10.67;100.00
10014;BME280;45684;48.358;10.746;2022-09-29T08:41:48;94790.50;;;10.80;100.00
10014;BME280;45684;48.358;10.746;2022-09-29T08:44:20;94794.41;;;10.98;100.00
10014;BME280;45684;48.358;10.746;2022-09-29T08:47:12;94794.88;;;11.20;100.00
10014;BME280;45684;48.358;10.746;2022-09-29T08:49:45;94790.00;;;11.45;100.00
10014;BME280;45684;48.358;10.746;2022-09-29T08:52:18;94796.84;;;11.58;100.00
10014;BME280;45684;48.358;10.746;2022-09-29T08:54:49;94799.69;;;11.65;100.00
10014;BME280;45684;48.358;10.746;2022-09-29T08:57:20;94792.84;;;11.71;100.00
10014;BME280;45684;48.358;10.746;2022-09-29T08:59:52;94805.75;;;11.78;100.00
10014;BME280;45684;48.358;10.746;2022-09-29T09:02:53;94814.94;;;11.93;100.00
10014;BME280;45684;48.358;10.746;2022-09-29T09:08:17;94810.81;;;11.99;100.00
10014;BME280;45684;48.358;10.746;2022-09-29T09:10:55;94806.25;;;12.03;100.00
10014;BME280;45684;48.358;10.746;2022-09-29T09:13:39;94809.09;;;12.10;100.00
10014;BME280;45684;48.358;10.746;2022-09-29T09:16:18;94811.09;;;12.13;100.00
10014;BME280;45684;48.358;10.746;2022-09-29T09:19:10;94808.00;;;12.15;100.00
10014;BME280;45684;48.358;10.746;2022-09-29T09:21:43;94820.06;;;12.17;100.00
10014;BME280;45684;48.358;10.746;2022-09-29T09:24:21;94819.34;;;12.20;100.00
10014;BME280;45684;48.358;10.746;2022-09-29T09:26:55;94820.63;;;12.27;100.00
10014;BME280;45684;48.358;10.746;2022-09-29T09:29:29;94828.16;;;12.37;100.00
10014;BME280;45684;48.358;10.746;2022-09-29T09:32:06;94829.91;;;12.48;100.00
10014;BME280;45684;48.358;10.746;2022-09-29T09:34:38;94824.72;;;12.63;100.00
10014;BME280;45684;48.358;10.746;2022-09-29T09:37:15;94838.88;;;12.75;100.00
10014;BME280;45684;48.358;10.746;2022-09-29T09:39:47;94825.13;;;12.88;100.00
10014;BME280;45684;48.358;10.746;2022-09-29T09:42:21;94830.56;;;12.88;100.00
10014;BME280;45684;48.358;10.746;2022-09-29T09:44:56;94832.13;;;12.89;100.00
10014;BME280;45684;48.358;10.746;2022-09-29T09:47:27;94826.75;;;12.92;100.00
10014;BME280;45684;48.358;10.746;2022-09-29T09:49:57;94822.53;;;12.95;100.00
10014;BME280;45684;48.358;10.746;2022-09-29T09:52:31;94827.09;;;12.91;100.00
10014;BME280;45684;48.358;10.746;2022-09-29T09:55:03;94832.91;;;12.89;100.00
10014;BME280;45684;48.358;10.746;2022-09-29T09:58:07;94833.63;;;12.86;100.00
10014;BME280;45684;48.358;10.746;2022-09-29T10:00:42;94833.16;;;12.81;100.00
10014;BME280;45684;48.358;10.746;2022-09-29T10:03:11;94825.31;;;12.75;100.00
10014;BME280;45684;48.358;10.746;2022-09-29T10:05:43;94835.47;;;12.79;100.00
10014;BME280;45684;48.358;10.746;2022-09-29T10:08:14;94833.63;;;12.86;100.00
10014;BME280;45684;48.358;10.746;2022-09-29T10:10:44;94838.41;;;12.93;100.00
10014;BME280;45684;48.358;10.746;2022-09-29T10:13:25;94828.72;;;12.95;100.00
10014;BME280;45684;48.358;10.746;2022-09-29T10:15:56;94826.91;;;13.03;100.00
10014;BME280;45684;48.358;10.746;2022-09-29T10:18:28;94830.25;;;13.19;100.00
10014;BME280;45684;48.358;10.746;2022-09-29T10:20:57;94835.63;;;13.39;100.00
10014;BME280;45684;48.358;10.746;2022-09-29T10:23:27;94844.88;;;13.64;100.00
10014;BME280;45684;48.358;10.746;2022-09-29T10:26:01;94838.94;;;13.85;100.00
10014;BME280;45684;48.358;10.746;2022-09-29T10:28:38;94837.53;;;13.98;100.00
10014;BME280;45684;48.358;10.746;2022-09-29T10:31:26;94847.22;;;13.96;100.00
10014;BME280;45684;48.358;10.746;2022-09-29T10:33:56;94843.28;;;13.90;100.00
10014;BME280;45684;48.358;10.746;2022-09-29T10:36:28;94855.28;;;13.89;100.00
10014;BME280;45684;48.358;10.746;2022-09-29T10:38:56;94848.97;;;13.81;100.00
10014;BME280;45684;48.358;10.746;2022-09-29T10:41:29;94854.19;;;13.63;100.00
10014;BME280;45684;48.358;10.746;2022-09-29T10:44:20;94857.88;;;13.51;100.00
10014;BME280;45684;48.358;10.746;2022-09-29T10:46:51;94862.03;;;13.42;100.00
10014;BME280;45684;48.358;10.746;2022-09-29T10:49:21;94855.72;;;13.34;100.00
10014;BME280;45684;48.358;10.746;2022-09-29T10:51:56;94862.47;;;13.44;100.00
10014;BME280;45684;48.358;10.746;2022-09-29T10:54:27;94872.94;;;13.45;100.00
10014;BME280;45684;48.358;10.746;2022-09-29T10:56:56;94864.09;;;13.52;100.00
10014;BME280;45684;48.358;10.746;2022-09-29T10:59:25;94868.50;;;13.60;100.00
10014;BME280;45684;48.358;10.746;2022-09-29T11:01:58;94870.47;;;13.63;100.00
10014;BME280;45684;48.358;10.746;2022-09-29T11:04:29;94869.28;;;13.61;100.00
10014;BME280;45684;48.358;10.746;2022-09-29T11:07:05;94863.31;;;13.51;100.00
10014;BME280;45684;48.358;10.746;2022-09-29T11:09:37;94877.91;;;13.40;100.00
10014;BME280;45684;48.358;10.746;2022-09-29T11:12:24;94878.09;;;13.27;100.00
10014;BME280;45684;48.358;10.746;2022-09-29T11:14:52;94877.06;;;13.13;100.00
10014;BME280;45684;48.358;10.746;2022-09-29T11:17:23;94883.50;;;13.01;100.00
10014;BME280;45684;48.358;10.746;2022-09-29T11:19:52;94886.78;;;12.91;100.00
10014;BME280;45684;48.358;10.746;2022-09-29T11:22:34;94890.91;;;12.81;100.00
10014;BME280;45684;48.358;10.746;2022-09-29T11:25:20;94891.97;;;12.76;100.00
10014;BME280;45684;48.358;10.746;2022-09-29T11:28:05;94890.56;;;12.83;100.00
10014;BME280;45684;48.358;10.746;2022-09-29T11:30:48;94884.94;;;12.95;100.00
10014;BME280;45684;48.358;10.746;2022-09-29T11:33:27;94895.16;;;13.05;100.00
10014;BME280;45684;48.358;10.746;2022-09-29T11:36:03;94892.44;;;13.24;100.00
10014;BME280;45684;48.358;10.746;2022-09-29T11:38:47;94890.28;;;13.37;100.00
10014;BME280;45684;48.358;10.746;2022-09-29T11:41:29;94888.53;;;13.52;100.00
10014;BME280;45684;48.358;10.746;2022-09-29T11:44:07;94881.56;;;13.51;100.00
10014;BME280;45684;48.358;10.746;2022-09-29T11:46:54;94880.66;;;13.70;100.00
10014;BME280;45684;48.358;10.746;2022-09-29T11:49:40;94878.13;;;13.84;100.00
10014;BME280;45684;48.358;10.746;2022-09-29T11:52:22;94882.56;;;13.96;100.00
10014;BME280;45684;48.358;10.746;2022-09-29T11:55:05;94879.19;;;14.06;100.00
10014;BME280;45684;48.358;10.746;2022-09-29T11:57:48;94877.78;;;14.19;100.00
10014;BME280;45684;48.358;10.746;2022-09-29T12:00:20;94882.34;;;14.12;100.00
10014;BME280;45684;48.358;10.746;2022-09-29T12:03:05;94882.28;;;14.04;100.00
10014;BME280;45684;48.358;10.746;2022-09-29T12:06:08;94873.34;;;14.04;100.00
10014;BME280;45684;48.358;10.746;2022-09-29T12:08:52;94874.13;;;14.08;100.00
10014;BME280;45684;48.358;10.746;2022-09-29T12:11:30;94866.47;;;14.14;100.00
10014;BME280;45684;48.358;10.746;2022-09-29T12:14:28;94866.53;;;14.21;100.00
10014;BME280;45684;48.358;10.746;2022-09-29T12:17:10;94869.66;;;14.23;100.00
10014;BME280;45684;48.358;10.746;2022-09-29T12:19:39;94871.28;;;14.27;100.00
10014;BME280;45684;48.358;10.746;2022-09-29T12:22:14;94871.72;;;14.33;100.00
10014;BME280;45684;48.358;10.746;2022-09-29T12:24:47;94869.81;;;14.37;100.00
10014;BME280;45684;48.358;10.746;2022-09-29T12:27:21;94869.84;;;14.41;100.00
10014;BME280;45684;48.358;10.746;2022-09-29T12:29:54;94878.38;;;14.39;100.00
10014;BME280;45684;48.358;10.746;2022-09-29T12:32:26;94873.28;;;14.34;100.00
10014;BME280;45684;48.358;10.746;2022-09-29T12:34:58;94879.84;;;14.29;100.00
10014;BME280;45684;48.358;10.746;2022-09-29T12:37:34;94873.50;;;14.18;100.00
10014;BME280;45684;48.358;10.746;2022-09-29T12:40:09;94874.84;;;14.01;100.00
10014;BME280;45684;48.358;10.746;2022-09-29T12:42:54;94881.25;;;13.86;100.00
10014;BME280;45684;48.358;10.746;2022-09-29T12:45:32;94874.38;;;13.66;100.00
10014;BME280;45684;48.358;10.746;2022-09-29T12:48:13;94884.25;;;13.51;100.00
10014;BME280;45684;48.358;10.746;2022-09-29T12:50:49;94873.63;;;13.39;100.00
10014;BME280;45684;48.358;10.746;2022-09-29T12:53:22;94886.38;;;13.35;100.00
10014;BME280;45684;48.358;10.746;2022-09-29T12:55:56;94883.28;;;13.36;100.00
10014;BME280;45684;48.358;10.746;2022-09-29T12:58:31;94870.94;;;13.42;100.00
10014;BME280;45684;48.358;10.746;2022-09-29T13:01:13;94872.88;;;13.42;100.00
10014;BME280;45684;48.358;10.746;2022-09-29T13:04:02;94874.03;;;13.41;100.00
10014;BME280;45684;48.358;10.746;2022-09-29T13:06:59;94876.34;;;13.39;100.00
10014;BME280;45684;48.358;10.746;2022-09-29T13:09:53;94879.16;;;13.46;100.00
10014;BME280;45684;48.358;10.746;2022-09-29T13:12:39;94873.13;;;13.60;100.00
10014;BME280;45684;48.358;10.746;2022-09-29T13:15:23;94882.91;;;13.64;100.00
10014;BME280;45684;48.358;10.746;2022-09-29T13:18:07;94879.09;;;13.69;100.00